| time (UTC) | temp F | wind direction | speed MPH | gust MPH | rain 1hr in | rain 24hr in | rain mn in | humidity % | barometer mb |
| 20260902184622 | 78 | 150 | 9.0 | 19.0 | 0.00 | 0.00 | 0.00 | 31 | 1015.3 |
| 20260902183612 | 77 | 182 | 13.0 | 20.0 | 0.00 | 0.00 | 0.00 | 32 | 1015.2 |
| 20260902182623 | 78 | 184 | 9.0 | 19.0 | 0.00 | 0.00 | 0.00 | 32 | 1015.3 |
| 20260902181639 | 78 | 153 | 9.0 | 17.0 | 0.00 | 0.00 | 0.00 | 32 | 1015.5 |
| 20260902180617 | 77 | 170 | 6.0 | 17.0 | 0.00 | 0.00 | 0.00 | 30 | 1015.5 |
| 20260902175619 | 77 | 165 | 11.0 | 25.0 | 0.00 | 0.00 | 0.00 | 32 | 1015.6 |
| 20260902174630 | 77 | 159 | 14.0 | 24.0 | 0.00 | 0.00 | 0.00 | 30 | 1015.7 |
| 20260902173621 | 77 | 128 | 15.0 | 22.0 | 0.00 | 0.00 | 0.00 | 32 | 1015.8 |
| 20260902172616 | 75 | 173 | 6.0 | 17.0 | 0.00 | 0.00 | 0.00 | 35 | 1015.9 |
| 20260902171627 | 76 | 177 | 13.0 | 19.0 | 0.00 | 0.00 | 0.00 | 34 | 1016.0 |
| 20260902170618 | 76 | 184 | 9.0 | 22.0 | 0.00 | 0.00 | 0.00 | 34 | 1016.0 |
| 20260902165642 | 76 | 132 | 12.0 | 27.0 | 0.00 | 0.00 | 0.00 | 34 | 1016.1 |
| 20260902164615 | 75 | 166 | 14.0 | 26.0 | 0.00 | 0.00 | 0.00 | 33 | 1016.1 |
| 20260902163624 | 75 | 136 | 12.0 | 20.0 | 0.00 | 0.00 | 0.00 | 34 | 1016.0 |
| 20260902162634 | 75 | 126 | 15.0 | 26.0 | 0.00 | 0.00 | 0.00 | 33 | 1016.1 |
| 20260902161638 | 74 | 134 | 14.0 | 29.0 | 0.00 | 0.00 | 0.00 | 33 | 1016.2 |
| 20260902160630 | 74 | 171 | 8.0 | 18.0 | 0.00 | 0.00 | 0.00 | 35 | 1016.2 |
| 20260902155613 | 73 | 167 | 14.0 | 24.0 | 0.00 | 0.00 | 0.00 | 35 | 1016.1 |
| 20260902154622 | 73 | 138 | 16.0 | 29.0 | 0.00 | 0.00 | 0.00 | 35 | 1016.2 |
| 20260902153614 | 74 | 121 | 19.0 | 29.0 | 0.00 | 0.00 | 0.00 | 34 | 1016.0 |
| 20260902152627 | 74 | 155 | 9.0 | 27.0 | 0.00 | 0.00 | 0.00 | 34 | 1016.2 |
| 20260902151629 | 74 | 150 | 6.0 | 17.0 | 0.00 | 0.00 | 0.00 | 36 | 1016.1 |
| 20260902150640 | 74 | 164 | 15.0 | 26.0 | 0.00 | 0.00 | 0.00 | 36 | 1015.9 |
| 20260902145620 | 73 | 115 | 8.0 | 14.0 | 0.00 | 0.00 | 0.00 | 36 | 1015.8 |
| 20260902144613 | 73 | 171 | 6.0 | 9.0 | 0.00 | 0.00 | 0.00 | 37 | 1015.7 |
| 20260902143623 | 72 | 202 | 2.0 | 8.0 | 0.00 | 0.00 | 0.00 | 38 | 1015.7 |
| 20260902142631 | 71 | 100 | 6.0 | 11.0 | 0.00 | 0.00 | 0.00 | 39 | 1015.5 |
| 20260902141616 | 69 | 148 | 4.0 | 8.0 | 0.00 | 0.00 | 0.00 | 44 | 1015.4 |
| 20260902140644 | 68 | 118 | 3.0 | 4.0 | 0.00 | 0.00 | 0.00 | 50 | 1015.5 |
| 20260902135626 | 65 | 111 | 5.0 | 10.0 | 0.00 | 0.00 | 0.00 | 52 | 1015.5 |
| 20260902134615 | 65 | 111 | 2.0 | 6.0 | 0.00 | 0.00 | 0.00 | 55 | 1015.4 |
| 20260902133624 | 66 | 135 | 3.0 | 8.0 | 0.00 | 0.00 | 0.00 | 54 | 1015.5 |
| 20260902132617 | 65 | 103 | 3.0 | 6.0 | 0.00 | 0.00 | 0.00 | 54 | 1015.5 |
| 20260902131619 | 66 | 104 | 3.0 | 8.0 | 0.00 | 0.00 | 0.00 | 54 | 1015.5 |
| 20260902130650 | 66 | 11 | 4.0 | 7.0 | 0.00 | 0.00 | 0.00 | 52 | 1015.3 |
| 20260902125631 | 66 | 24 | 4.0 | 9.0 | 0.00 | 0.00 | 0.00 | 52 | 1015.1 |
| 20260902124627 | 66 | 90 | 4.0 | 8.0 | 0.00 | 0.00 | 0.00 | 53 | 1015.2 |
| 20260902123618 | 66 | 99 | 5.0 | 8.0 | 0.00 | 0.00 | 0.00 | 52 | 1015.0 |
| 20260902122625 | 65 | 35 | 4.0 | 8.0 | 0.00 | 0.00 | 0.00 | 53 | 1015.0 |
| 20260902121625 | 64 | 96 | 5.0 | 9.0 | 0.00 | 0.00 | 0.00 | 56 | 1015.1 |
| 20260902120616 | 63 | 101 | 6.0 | 9.0 | 0.00 | 0.00 | 0.00 | 60 | 1015.1 |
| 20260902115622 | 63 | 67 | 4.0 | 7.0 | 0.00 | 0.00 | 0.00 | 59 | 1015.0 |
| 20260902114652 | 63 | 104 | 5.0 | 7.0 | 0.00 | 0.00 | 0.00 | 59 | 1015.0 |
| 20260902113621 | 62 | 134 | 1.0 | 5.0 | 0.00 | 0.00 | 0.00 | 60 | 1014.9 |
| 20260902112652 | 62 | 108 | 2.0 | 4.0 | 0.00 | 0.00 | 0.00 | 60 | 1014.9 |
| 20260902111625 | 62 | 99 | 2.0 | 7.0 | 0.00 | 0.00 | 0.00 | 60 | 1014.9 |
| 20260902110614 | 62 | 137 | 3.0 | 5.0 | 0.00 | 0.00 | 0.00 | 61 | 1015.1 |
| 20260902105637 | 62 | 109 | 3.0 | 9.0 | 0.00 | 0.00 | 0.00 | 60 | 1015.1 |
| 20260902104624 | 62 | 151 | 4.0 | 8.0 | 0.00 | 0.00 | 0.00 | 60 | 1015.1 |
| 20260902103635 | 62 | 101 | 2.0 | 8.0 | 0.00 | 0.00 | 0.00 | 59 | 1015.1 |
| 20260902102648 | 63 | 87 | 3.0 | 5.0 | 0.00 | 0.00 | 0.00 | 57 | 1015.2 |
| 20260902101638 | 64 | 54 | 2.0 | 7.0 | 0.00 | 0.00 | 0.00 | 56 | 1015.2 |
| 20260902100646 | 65 | 130 | 2.0 | 5.0 | 0.00 | 0.00 | 0.00 | 53 | 1015.3 |
| 20260902095646 | 66 | 158 | 1.0 | 5.0 | 0.00 | 0.00 | 0.00 | 51 | 1015.3 |
| 20260902094614 | 66 | 186 | 2.0 | 4.0 | 0.00 | 0.00 | 0.00 | 51 | 1015.3 |
| 20260902093627 | 66 | 186 | 1.0 | 8.0 | 0.00 | 0.00 | 0.00 | 51 | 1015.4 |
| 20260902092618 | 66 | 127 | 4.0 | 8.0 | 0.00 | 0.00 | 0.00 | 51 | 1015.2 |
| 20260902091628 | 65 | 73 | 2.0 | 5.0 | 0.00 | 0.00 | 0.00 | 52 | 1015.3 |
| 20260902090623 | 65 | 157 | 3.0 | 5.0 | 0.00 | 0.00 | 0.00 | 54 | 1015.4 |
| 20260902085624 | 66 | 155 | 2.0 | 8.0 | 0.00 | 0.00 | 0.00 | 51 | 1015.4 |
| 20260902084636 | 67 | 116 | 2.0 | 7.0 | 0.00 | 0.00 | 0.00 | 49 | 1015.3 |
| 20260902083624 | 68 | 123 | 3.0 | 8.0 | 0.00 | 0.00 | 0.00 | 48 | 1015.3 |
| 20260902082613 | 67 | 139 | 5.0 | 11.0 | 0.00 | 0.00 | 0.00 | 48 | 1015.3 |
| 20260902081627 | 67 | 107 | 5.0 | 8.0 | 0.00 | 0.00 | 0.00 | 49 | 1015.4 |
| 20260902080617 | 68 | 97 | 6.0 | 9.0 | 0.00 | 0.00 | 0.00 | 49 | 1015.2 |
| 20260902075619 | 67 | 97 | 5.0 | 10.0 | 0.00 | 0.00 | 0.00 | 52 | 1015.2 |
| 20260902074614 | 66 | 130 | 5.0 | 11.0 | 0.00 | 0.00 | 0.00 | 54 | 1015.2 |
| 20260902073624 | 66 | 103 | 7.0 | 11.0 | 0.00 | 0.00 | 0.00 | 55 | 1015.0 |
| 20260902072615 | 66 | 109 | 8.0 | 12.0 | 0.00 | 0.00 | 0.00 | 54 | 1015.1 |
| 20260902071644 | 66 | 117 | 7.0 | 10.0 | 0.00 | 0.00 | 0.00 | 55 | 1015.1 |
| 20260902070616 | 66 | 96 | 7.0 | 12.0 | 0.00 | 0.00 | 0.00 | 54 | 1014.9 |
| 20260902065618 | 67 | 111 | 5.0 | 8.0 | 0.00 | 0.00 | 0.00 | 53 | 1015.0 |
| 20260902064628 | 67 | 120 | 5.0 | 9.0 | 0.00 | 0.00 | 0.00 | 52 | 1015.0 |
| 20260902063616 | 67 | 122 | 6.0 | 9.0 | 0.00 | 0.00 | 0.00 | 53 | 1014.9 |
| 20260902062644 | 68 | 95 | 7.0 | 10.0 | 0.00 | 0.00 | 0.00 | 51 | 1014.9 |
| 20260902061617 | 68 | 117 | 3.0 | 10.0 | 0.00 | 0.00 | 0.00 | 51 | 1014.9 |
| 20260902060613 | 68 | 123 | 6.0 | 9.0 | 0.00 | 0.00 | 0.00 | 50 | 1014.9 |
| 20260902055616 | 69 | 126 | 4.0 | 12.0 | 0.00 | 0.00 | 0.00 | 50 | 1015.0 |
| 20260902054626 | 69 | 108 | 10.0 | 13.0 | 0.00 | 0.00 | 0.00 | 50 | 1015.1 |
| 20260902053618 | 68 | 123 | 6.0 | 11.0 | 0.00 | 0.00 | 0.00 | 51 | 1015.1 |
| 20260902052629 | 69 | 132 | 6.0 | 10.0 | 0.00 | 0.00 | 0.00 | 51 | 1015.0 |
| 20260902051619 | 69 | 125 | 7.0 | 10.0 | 0.00 | 0.00 | 0.00 | 50 | 1015.1 |
| 20260902050629 | 69 | 139 | 7.0 | 11.0 | 0.00 | 0.00 | 0.00 | 49 | 1015.3 |
| 20260902045615 | 69 | 144 | 9.0 | 11.0 | 0.00 | 0.00 | 0.00 | 47 | 1015.3 |
| 20260902044625 | 70 | 131 | 6.0 | 9.0 | 0.00 | 0.00 | 0.00 | 47 | 1015.3 |
| 20260902043616 | 69 | 107 | 6.0 | 9.0 | 0.00 | 0.00 | 0.00 | 48 | 1015.3 |
| 20260902042627 | 69 | 132 | 5.0 | 9.0 | 0.00 | 0.00 | 0.00 | 47 | 1015.4 |
| 20260902041622 | 70 | 122 | 6.0 | 12.0 | 0.00 | 0.00 | 0.00 | 47 | 1015.3 |
| 20260902040612 | 70 | 115 | 4.0 | 7.0 | 0.00 | 0.00 | 0.00 | 47 | 1015.3 |
| 20260902035614 | 70 | 110 | 3.0 | 4.0 | 0.00 | 0.00 | 0.00 | 49 | 1015.2 |
| 20260902034630 | 70 | 110 | 2.0 | 4.0 | 0.00 | 0.00 | 0.00 | 49 | 1015.1 |
| 20260902033619 | 70 | 110 | 2.0 | 7.0 | 0.00 | 0.00 | 0.00 | 50 | 1015.1 |
| 20260902032629 | 70 | 140 | 2.0 | 4.0 | 0.00 | 0.00 | 0.00 | 50 | 1015.0 |
| 20260902031620 | 71 | 141 | 3.0 | 4.0 | 0.00 | 0.00 | 0.00 | 46 | 1014.9 |
| 20260902030613 | 72 | 169 | 0.0 | 3.0 | 0.00 | 0.00 | 0.00 | 46 | 1014.7 |
| 20260902025615 | 73 | 189 | 2.0 | 4.0 | 0.00 | 0.00 | 0.00 | 44 | 1014.5 |
| 20260902024624 | 73 | 194 | 2.0 | 3.0 | 0.00 | 0.00 | 0.00 | 44 | 1014.5 |
| 20260902023635 | 73 | 194 | 2.0 | 3.0 | 0.00 | 0.00 | 0.00 | 43 | 1014.5 |
| 20260902022628 | 74 | 195 | 0.0 | 2.0 | 0.00 | 0.00 | 0.00 | 44 | 1014.4 |
| 20260902021618 | 75 | 195 | 0.0 | 3.0 | 0.00 | 0.00 | 0.00 | 42 | 1014.3 |
| 20260902020628 | 75 | 196 | 1.0 | 5.0 | 0.00 | 0.00 | 0.00 | 40 | 1014.3 |
| 20260902015631 | 76 | 214 | 2.0 | 3.0 | 0.00 | 0.00 | 0.00 | 40 | 1014.3 |
| 20260902014626 | 76 | 214 | 0.0 | 3.0 | 0.00 | 0.00 | 0.00 | 39 | 1014.4 |
| 20260902013615 | 77 | 214 | 2.0 | 4.0 | 0.00 | 0.00 | 0.00 | 38 | 1014.4 |
| 20260902012627 | 78 | 216 | 3.0 | 7.0 | 0.00 | 0.00 | 0.00 | 37 | 1014.5 |
| 20260902011617 | 78 | 134 | 3.0 | 7.0 | 0.00 | 0.00 | 0.00 | 36 | 1014.5 |
| 20260902010630 | 79 | 155 | 1.0 | 7.0 | 0.00 | 0.00 | 0.00 | 35 | 1014.5 |
| 20260902005612 | 79 | 126 | 5.0 | 14.0 | 0.00 | 0.03 | 0.00 | 34 | 1014.5 |
| 20260902004623 | 79 | 191 | 14.0 | 23.0 | 0.00 | 0.03 | 0.00 | 33 | 1014.7 |
| 20260902003614 | 80 | 188 | 3.0 | 9.0 | 0.00 | 0.03 | 0.00 | 33 | 1014.6 |
| 20260902002651 | 79 | 159 | 6.0 | 12.0 | 0.00 | 0.03 | 0.00 | 32 | 1014.6 |
| 20260902001621 | 80 | 192 | 6.0 | 10.0 | 0.00 | 0.03 | 0.00 | 33 | 1014.8 |
| 20260902000633 | 80 | 176 | 7.0 | 14.0 | 0.00 | 0.03 | 0.00 | 32 | 1014.9 |
| 20260901235635 | 81 | 219 | 7.0 | 16.0 | 0.00 | 0.04 | 0.00 | 32 | 1014.9 |
| 20260901234624 | 81 | 189 | 8.0 | 11.0 | 0.00 | 0.04 | 0.00 | 33 | 1014.9 |
| 20260901233639 | 81 | 182 | 6.0 | 10.0 | 0.00 | 0.04 | 0.00 | 33 | 1015.1 |
| 20260901232629 | 80 | 171 | 6.0 | 11.0 | 0.00 | 0.04 | 0.00 | 34 | 1015.2 |
| 20260901231641 | 80 | 159 | 7.0 | 11.0 | 0.00 | 0.04 | 0.00 | 33 | 1015.3 |
| 20260901230631 | 80 | 191 | 8.0 | 17.0 | 0.00 | 0.04 | 0.00 | 34 | 1015.5 |
| 20260901225618 | 80 | 132 | 10.0 | 15.0 | 0.00 | 0.04 | 0.00 | 34 | 1015.5 |
| 20260901224629 | 80 | 200 | 10.0 | 18.0 | 0.00 | 0.04 | 0.00 | 35 | 1015.6 |
| 20260901223619 | 80 | 172 | 15.0 | 22.0 | 0.00 | 0.04 | 0.00 | 33 | 1015.8 |
| 20260901222629 | 80 | 180 | 7.0 | 22.0 | 0.00 | 0.04 | 0.00 | 37 | 1015.7 |
| 20260901221643 | 80 | 188 | 9.0 | 19.0 | 0.00 | 0.04 | 0.00 | 38 | 1015.9 |
| 20260901220651 | 79 | 184 | 10.0 | 16.0 | 0.00 | 0.04 | 0.00 | 37 | 1016.0 |
| 20260901215631 | 78 | 225 | 11.0 | 27.0 | 0.00 | 0.04 | 0.00 | 36 | 1016.2 |
| 20260901214620 | 78 | 144 | 11.0 | 17.0 | 0.00 | 0.04 | 0.00 | 35 | 1016.3 |
| 20260901213613 | 79 | 127 | 10.0 | 14.0 | 0.00 | 0.04 | 0.00 | 36 | 1016.5 |
| 20260901212622 | 79 | 142 | 12.0 | 18.0 | 0.00 | 0.04 | 0.00 | 34 | 1016.5 |
| 20260901211614 | 80 | 213 | 12.0 | 19.0 | 0.00 | 0.04 | 0.00 | 35 | 1016.7 |
| 20260901210645 | 79 | 112 | 8.0 | 13.0 | 0.00 | 0.04 | 0.00 | 34 | 1016.8 |
| 20260901205630 | 78 | 140 | 5.0 | 12.0 | 0.00 | 0.04 | 0.00 | 35 | 1017.0 |
| 20260901204619 | 79 | 155 | 9.0 | 17.0 | 0.00 | 0.04 | 0.00 | 34 | 1017.2 |
| 20260901203630 | 79 | 219 | 6.0 | 10.0 | 0.00 | 0.04 | 0.00 | 37 | 1017.4 |
| 20260901202621 | 77 | 183 | 9.0 | 14.0 | 0.00 | 0.04 | 0.00 | 38 | 1017.6 |
| 20260901201614 | 77 | 146 | 4.0 | 10.0 | 0.00 | 0.04 | 0.00 | 41 | 1017.9 |
| 20260901200624 | 76 | 138 | 5.0 | 13.0 | 0.00 | 0.04 | 0.00 | 44 | 1017.9 |
| 20260901195625 | 75 | 168 | 6.0 | 11.0 | 0.00 | 0.04 | 0.00 | 46 | 1018.0 |
| 20260901194617 | 76 | 160 | 11.0 | 13.0 | 0.00 | 0.04 | 0.00 | 43 | 1018.1 |
| 20260901193632 | 75 | 144 | 9.0 | 16.0 | 0.00 | 0.04 | 0.00 | 44 | 1018.0 |
| 20260901192622 | 76 | 170 | 9.0 | 17.0 | 0.00 | 0.04 | 0.00 | 45 | 1018.1 |
| 20260901191612 | 76 | 161 | 10.0 | 15.0 | 0.00 | 0.04 | 0.00 | 45 | 1018.2 |
| 20260901190626 | 76 | 143 | 7.0 | 14.0 | 0.00 | 0.04 | 0.00 | 46 | 1018.2 |
| 20260901185624 | 76 | 295 | 2.0 | 5.0 | 0.00 | 0.04 | 0.00 | 48 | 1018.3 |